createdAt,value
2023-04-29T00:03:20.847Z,20.77
2023-04-29T00:08:17.489Z,17.75
2023-04-29T00:13:14.331Z,16.73
2023-04-29T00:18:10.978Z,17.83
2023-04-29T00:23:07.652Z,18.90
2023-04-29T00:28:04.631Z,17.15
2023-04-29T00:33:01.132Z,21.13
2023-04-29T00:38:00.611Z,18.65
2023-04-29T00:42:57.215Z,16.83
2023-04-29T00:47:53.709Z,23.13
2023-04-29T00:52:52.458Z,20.85
2023-04-29T00:57:52.231Z,26.17
2023-04-29T01:02:50.154Z,20.27
2023-04-29T01:07:57.561Z,26.27
2023-04-29T01:13:17.964Z,22.42
2023-04-29T01:18:20.724Z,23.48
2023-04-29T01:23:17.229Z,19.85
2023-04-29T01:28:41.173Z,31.85
2023-04-29T01:33:44.408Z,20.27
2023-04-29T01:39:02.482Z,23.70
2023-04-29T01:44:01.689Z,22.75
2023-04-29T01:48:58.140Z,18.80
2023-04-29T01:53:54.567Z,21.60
2023-04-29T01:58:51.027Z,27.08
2023-04-29T02:03:47.626Z,24.35
2023-04-29T02:08:44.034Z,24.13
2023-04-29T02:13:40.655Z,25.52
2023-04-29T02:18:37.366Z,25.30
2023-04-29T02:23:37.379Z,24.27
2023-04-29T02:28:34.999Z,24.92
2023-04-29T02:33:33.607Z,20.67
2023-04-29T02:38:30.057Z,31.27
2023-04-29T02:43:26.678Z,22.50
2023-04-29T02:48:23.251Z,21.95
2023-04-29T02:53:20.953Z,23.10
2023-04-29T02:58:17.361Z,26.80
2023-04-29T03:03:14.020Z,23.80
2023-04-29T03:08:11.115Z,25.77
2023-04-29T03:13:07.543Z,22.85
2023-04-29T03:18:05.874Z,26.48
2023-04-29T03:23:02.438Z,23.13
2023-04-29T03:27:58.876Z,22.85
2023-04-29T03:32:55.287Z,25.10
2023-04-29T03:37:51.670Z,22.00
2023-04-29T03:42:48.093Z,26.70
2023-04-29T03:47:44.588Z,24.10
2023-04-29T03:52:41.064Z,22.13
2023-04-29T03:57:37.444Z,23.02
2023-04-29T04:02:35.234Z,24.33
2023-04-29T04:07:31.851Z,26.65
2023-04-29T04:12:28.247Z,26.90
2023-04-29T04:17:24.632Z,24.25
2023-04-29T04:22:21.058Z,26.00
2023-04-29T04:27:17.429Z,24.60
2023-04-29T04:32:13.846Z,22.90
2023-04-29T04:37:10.278Z,25.95
2023-04-29T04:42:06.772Z,23.33
2023-04-29T04:47:03.200Z,25.70
2023-04-29T04:51:59.927Z,24.83
2023-04-29T04:56:56.442Z,27.73
2023-04-29T05:01:52.882Z,24.38
2023-04-29T05:06:49.307Z,26.33
2023-04-29T05:11:46.437Z,21.52
2023-04-29T05:16:43.686Z,26.90
2023-04-29T05:21:40.349Z,22.70
2023-04-29T05:26:36.925Z,24.95
2023-04-29T05:31:33.434Z,21.27
2023-04-29T05:36:29.859Z,19.63
2023-04-29T05:41:26.312Z,23.48
2023-04-29T05:46:23.204Z,21.40
2023-04-29T05:51:19.964Z,22.17
2023-04-29T05:56:16.667Z,20.85
2023-04-29T06:01:13.381Z,19.05
2023-04-29T06:06:10.748Z,26.08
2023-04-29T06:11:07.144Z,17.98
2023-04-29T06:16:03.675Z,17.10
2023-04-29T06:21:00.270Z,14.25
2023-04-29T06:25:57.559Z,17.60
2023-04-29T06:30:54.013Z,23.65
2023-04-29T06:35:50.455Z,18.55
2023-04-29T06:40:46.900Z,16.80
2023-04-29T06:45:46.748Z,18.90
2023-04-29T06:50:56.617Z,23.83
2023-04-29T06:55:53.168Z,16.67
2023-04-29T07:00:50.768Z,15.95
2023-04-29T07:05:47.732Z,17.88
2023-04-29T07:10:44.173Z,16.80
2023-04-29T07:15:40.718Z,19.45
2023-04-29T07:20:37.168Z,13.57
2023-04-29T07:25:34.056Z,11.20
2023-04-29T07:30:30.646Z,13.07
2023-04-29T07:35:27.559Z,13.05
2023-04-29T07:40:24.090Z,11.63
2023-04-29T07:45:20.718Z,10.88
2023-04-29T07:50:17.293Z,10.00
2023-04-29T07:55:14.084Z,17.45
2023-04-29T08:00:10.807Z,11.30
2023-04-29T08:05:08.050Z,13.50
2023-04-29T08:10:05.782Z,11.07
2023-04-29T08:15:02.403Z,11.60
2023-04-29T08:19:58.808Z,11.65
2023-04-29T08:24:55.833Z,12.43
2023-04-29T08:29:52.465Z,12.82
2023-04-29T08:34:49.088Z,10.05
2023-04-29T08:39:47.951Z,12.35
2023-04-29T08:44:46.956Z,12.48
2023-04-29T08:49:43.417Z,13.73
2023-04-29T08:54:39.894Z,13.25
2023-04-29T08:59:36.485Z,13.25
2023-04-29T09:04:53.164Z,13.60
2023-04-29T09:09:51.165Z,17.70
2023-04-29T09:14:48.784Z,13.30
2023-04-29T09:19:45.292Z,12.27
2023-04-29T09:24:43.851Z,12.63
2023-04-29T09:30:00.542Z,14.82
2023-04-29T09:34:57.007Z,14.10
2023-04-29T09:39:54.330Z,16.38
2023-04-29T09:44:52.246Z,14.10
2023-04-29T09:49:49.934Z,15.25
2023-04-29T09:54:46.765Z,11.80
2023-04-29T09:59:43.543Z,11.82
2023-04-29T10:04:41.909Z,13.43
2023-04-29T10:09:39.981Z,10.27
2023-04-29T10:14:45.377Z,9.57
2023-04-29T10:19:56.459Z,10.50
2023-04-29T10:24:55.238Z,11.93
2023-04-29T10:29:53.014Z,9.85
2023-04-29T10:34:52.458Z,9.50
2023-04-29T10:40:01.323Z,14.77
2023-04-29T10:45:35.234Z,9.77
2023-04-29T10:50:34.012Z,9.82
2023-04-29T10:55:31.505Z,11.48
2023-04-29T11:00:30.311Z,10.50
2023-04-29T11:05:34.946Z,11.38
2023-04-29T11:10:38.722Z,11.15
2023-04-29T11:15:35.284Z,10.30
2023-04-29T11:20:31.721Z,12.40
2023-04-29T11:25:28.406Z,12.85
2023-04-29T11:30:25.092Z,13.82
2023-04-29T11:35:21.505Z,13.77
2023-04-29T11:40:18.015Z,11.88
2023-04-29T11:45:16.649Z,10.88
2023-04-29T11:50:16.666Z,12.45
2023-04-29T11:55:14.548Z,12.85
2023-04-29T12:00:13.335Z,8.32
2023-04-29T12:05:10.411Z,12.30
2023-04-29T12:10:11.442Z,13.38
2023-04-29T12:15:10.162Z,8.50
2023-04-29T12:20:09.846Z,10.50
2023-04-29T12:25:07.641Z,10.10
2023-04-29T12:30:09.274Z,10.13
2023-04-29T12:35:06.081Z,8.60
2023-04-29T12:40:02.691Z,7.68
2023-04-29T12:44:59.282Z,6.85
2023-04-29T12:49:57.420Z,6.53
2023-04-29T12:54:54.063Z,7.93
2023-04-29T12:59:50.584Z,10.13
2023-04-29T13:04:47.154Z,8.18
2023-04-29T13:09:43.669Z,8.82
2023-04-29T13:14:40.080Z,12.45
2023-04-29T13:19:50.363Z,8.30
2023-04-29T13:24:48.468Z,10.93
2023-04-29T13:29:44.834Z,8.82
2023-04-29T13:34:43.396Z,11.13
2023-04-29T13:39:39.946Z,8.98
2023-04-29T13:44:51.002Z,8.27
2023-04-29T13:55:13.776Z,5.97
2023-04-29T14:00:25.301Z,7.20
2023-04-29T14:05:23.254Z,6.40
2023-04-29T14:10:19.936Z,8.75
2023-04-29T14:15:16.702Z,7.15
2023-04-29T14:20:13.421Z,7.43
2023-04-29T14:25:09.948Z,9.65
2023-04-29T14:30:07.172Z,7.90
2023-04-29T14:35:03.750Z,6.65
2023-04-29T14:40:00.796Z,6.70
2023-04-29T14:44:57.187Z,6.18
2023-04-29T14:49:53.720Z,6.03
2023-04-29T14:54:50.269Z,6.50
2023-04-29T14:59:46.693Z,6.93
2023-04-29T15:04:45.982Z,6.55
2023-04-29T15:09:42.388Z,6.35
2023-04-29T15:14:38.858Z,6.40
2023-04-29T15:19:35.436Z,9.07
2023-04-29T15:24:31.908Z,5.70
2023-04-29T15:29:29.298Z,6.70
2023-04-29T15:34:25.849Z,7.25
2023-04-29T15:39:22.285Z,6.43
2023-04-29T15:44:18.712Z,6.90
2023-04-29T15:49:15.208Z,8.88
2023-04-29T15:54:11.601Z,6.28
2023-04-29T15:59:08.035Z,7.93
2023-04-29T16:04:04.779Z,5.93
2023-04-29T16:09:01.345Z,7.53
2023-04-29T16:13:57.828Z,9.85
2023-04-29T16:18:54.523Z,6.57
2023-04-29T16:23:51.133Z,6.30
2023-04-29T16:28:47.770Z,9.27
2023-04-29T16:33:44.602Z,10.95
2023-04-29T16:38:41.060Z,8.63
2023-04-29T16:43:37.529Z,8.95
2023-04-29T16:48:34.236Z,9.88
2023-04-29T16:53:30.621Z,9.57
2023-04-29T16:58:27.009Z,8.23
2023-04-29T17:03:23.616Z,9.52
2023-04-29T17:08:22.672Z,12.05
2023-04-29T17:13:19.523Z,11.25
2023-04-29T17:18:15.998Z,14.02
2023-04-29T17:23:12.660Z,9.02
2023-04-29T17:28:09.191Z,8.50
2023-04-29T17:33:05.975Z,9.40
2023-04-29T17:38:02.558Z,8.18
2023-04-29T17:42:59.052Z,9.50
2023-04-29T17:47:55.681Z,10.48
2023-04-29T17:52:52.231Z,6.55
2023-04-29T17:57:48.661Z,9.68
2023-04-29T18:02:45.210Z,12.00
2023-04-29T18:07:41.698Z,7.75
2023-04-29T18:12:38.138Z,9.45
2023-04-29T18:17:34.633Z,8.80
2023-04-29T18:22:31.089Z,7.90
2023-04-29T18:27:27.522Z,11.25
2023-04-29T18:32:23.972Z,7.97
2023-04-29T18:37:20.539Z,10.90
2023-04-29T18:42:16.990Z,12.15
2023-04-29T18:47:13.613Z,12.35
2023-04-29T18:52:10.041Z,6.68
2023-04-29T18:57:06.787Z,9.38
2023-04-29T19:02:04.206Z,9.95
2023-04-29T19:07:00.986Z,12.13
2023-04-29T19:11:59.940Z,12.40
2023-04-29T19:16:56.826Z,11.27
2023-04-29T19:21:53.726Z,13.02
2023-04-29T19:26:53.614Z,11.32
2023-04-29T19:31:50.482Z,10.82
2023-04-29T19:36:47.205Z,9.15
2023-04-29T19:41:44.489Z,8.75
2023-04-29T19:46:41.144Z,6.72
2023-04-29T19:51:37.805Z,10.57
2023-04-29T19:56:34.331Z,6.88
2023-04-29T20:01:30.946Z,10.50
2023-04-29T20:06:28.252Z,9.85
2023-04-29T20:11:24.904Z,9.02
2023-04-29T20:16:23.436Z,9.73
2023-04-29T20:21:19.986Z,8.48
2023-04-29T20:26:19.552Z,7.80
2023-04-29T20:31:17.058Z,10.80
2023-04-29T20:36:13.494Z,9.23
2023-04-29T20:41:10.908Z,11.65
2023-04-29T20:46:07.405Z,9.63
2023-04-29T20:51:03.982Z,12.63
2023-04-29T20:56:00.384Z,14.95
2023-04-29T21:00:56.906Z,13.63
2023-04-29T21:05:54.590Z,10.65
2023-04-29T21:10:51.693Z,7.40
2023-04-29T21:15:48.488Z,9.75
2023-04-29T21:20:45.852Z,9.93
2023-04-29T21:25:45.583Z,14.68
2023-04-29T21:30:42.447Z,13.98
2023-04-29T21:35:42.278Z,9.77
2023-04-29T21:40:42.421Z,13.43
2023-04-29T21:45:43.153Z,10.00
2023-04-29T21:50:40.302Z,13.05
2023-04-29T21:55:36.965Z,15.77
2023-04-29T22:00:36.228Z,11.27
2023-04-29T22:05:32.681Z,13.48
2023-04-29T22:10:30.486Z,10.77
2023-04-29T22:15:28.913Z,10.85
2023-04-29T22:20:26.297Z,11.70
2023-04-29T22:25:22.862Z,15.10
2023-04-29T22:30:20.497Z,14.63
2023-04-29T22:35:17.042Z,8.13
2023-04-29T22:40:13.884Z,23.15
2023-04-29T22:45:11.478Z,14.27
2023-04-29T22:50:08.255Z,12.43
2023-04-29T22:55:05.048Z,14.85
2023-04-29T23:00:01.452Z,9.65
2023-04-29T23:04:59.283Z,10.57
2023-04-29T23:09:56.547Z,14.23
2023-04-29T23:14:53.265Z,15.82
2023-04-29T23:19:49.749Z,11.77
2023-04-29T23:24:46.177Z,8.98
2023-04-29T23:29:42.907Z,11.63
2023-04-29T23:34:39.773Z,17.35
2023-04-29T23:39:36.393Z,15.57
2023-04-29T23:44:32.760Z,10.27
2023-04-29T23:49:29.176Z,15.00
2023-04-29T23:54:25.587Z,12.68
2023-04-29T23:59:22.308Z,9.55
